Terminal Aerodrome Forecast
Issued by NWS

Home | Current Version | Previous Version | Text Only | Print | Product List | Glossary On
Versions: 1 2 3 4 5 6 7 8 9 10 11 12 13 14 15 16 17 18 19
882
FTUS45 KABQ 302325
TAFTCC
TAF
KTCC 302325Z 3100/3124 18015KT P6SM VCSH SCT090 BKN150
      TEMPO 3100/3102 VRB25G35KT -SHRA BKN080
     FM310200 15013KT P6SM FEW070 SCT140
     FM310700 22008KT P6SM SCT040 SCT150
     FM311200 31008KT P6SM SCT120
     FM311700 10013KT P6SM BKN090
     FM312100 07008KT P6SM VCTS BKN080CB=

USA.gov is the U.S. government's official web portal to all federal, state and local government web resources and services.